Wheeler, Michigan
Current Conditions -  °F | °C
As of 12:13 AM on Saturday 22 Nov 2014 (Local Time) from KAMN Reporting Station
Clear Clear  
Wind Chill: 12°   Ceiling: Unl
Heat Index: 21°   Visibility: 10mi
Dew Point: 14°   Wind: 8mph
Humidity: 73%   Direction: 180°S
Pressure: 30.24"   Gusts: NA
Location:  43.41°N, 84.44°W
Report Text: KAMN 220513Z AUTO 18007KT 10SM CLR M06/M10 A3024 RMK AO2 T10601102
Loading
Personal Weather Stations






























Interactive Weather Map New forecast layout! Learn more

10-Day Weather Forecast

Advertisements
Track Severe Weather on mobile